sensor_id;sensor_type;location;lat;lon;timestamp;pressure;altitude;pressure_sealevel;temperature;humidity
70072;BME280;57434;42.794;23.302;2023-04-26T00:00:04;94631.56;;;7.85;nan
70072;BME280;57434;42.794;23.302;2023-04-26T00:01:06;94742.94;;;8.57;nan
70072;BME280;57434;42.794;23.302;2023-04-26T00:02:07;94641.59;;;8.02;nan
70072;BME280;57434;42.794;23.302;2023-04-26T00:03:09;94700.47;;;8.47;nan
70072;BME280;57434;42.794;23.302;2023-04-26T00:04:12;94695.56;;;8.36;nan
70072;BME280;57434;42.794;23.302;2023-04-26T00:05:14;94726.94;;;8.63;nan
70072;BME280;57434;42.794;23.302;2023-04-26T00:06:16;94604.66;;;7.81;nan
70072;BME280;57434;42.794;23.302;2023-04-26T00:07:18;94702.78;;;8.54;nan
70072;BME280;57434;42.794;23.302;2023-04-26T00:08:20;94687.47;;;8.44;nan
70072;BME280;57434;42.794;23.302;2023-04-26T00:09:22;94615.41;;;8.00;nan
70072;BME280;57434;42.794;23.302;2023-04-26T00:10:24;94633.72;;;8.06;nan
70072;BME280;57434;42.794;23.302;2023-04-26T00:11:25;94726.47;;;8.70;nan
70072;BME280;57434;42.794;23.302;2023-04-26T00:12:27;94663.03;;;8.28;nan
70072;BME280;57434;42.794;23.302;2023-04-26T00:13:29;94647.22;;;8.13;nan
70072;BME280;57434;42.794;23.302;2023-04-26T00:14:31;94710.06;;;8.40;nan
70072;BME280;57434;42.794;23.302;2023-04-26T00:15:33;94707.34;;;8.52;nan
70072;BME280;57434;42.794;23.302;2023-04-26T00:16:34;94562.84;;;7.50;nan
70072;BME280;57434;42.794;23.302;2023-04-26T00:17:36;94528.53;;;7.33;nan
70072;BME280;57434;42.794;23.302;2023-04-26T00:18:38;94701.72;;;8.46;nan
70072;BME280;57434;42.794;23.302;2023-04-26T00:19:40;94576.13;;;7.61;nan
70072;BME280;57434;42.794;23.302;2023-04-26T00:20:42;94666.59;;;8.28;nan
70072;BME280;57434;42.794;23.302;2023-04-26T00:21:44;94711.31;;;8.34;nan
70072;BME280;57434;42.794;23.302;2023-04-26T00:22:46;94594.72;;;7.75;nan
70072;BME280;57434;42.794;23.302;2023-04-26T00:23:47;94663.50;;;8.21;nan
70072;BME280;57434;42.794;23.302;2023-04-26T00:24:49;94678.28;;;8.27;nan
70072;BME280;57434;42.794;23.302;2023-04-26T00:25:51;94609.00;;;7.88;nan
70072;BME280;57434;42.794;23.302;2023-04-26T00:26:54;94559.56;;;7.52;nan
70072;BME280;57434;42.794;23.302;2023-04-26T00:27:56;94675.19;;;8.19;nan
70072;BME280;57434;42.794;23.302;2023-04-26T00:28:58;94630.56;;;7.88;nan
70072;BME280;57434;42.794;23.302;2023-04-26T00:30:00;94598.97;;;7.65;nan
70072;BME280;57434;42.794;23.302;2023-04-26T00:31:02;94572.16;;;7.36;nan
70072;BME280;57434;42.794;23.302;2023-04-26T00:32:04;94591.63;;;7.30;nan
70072;BME280;57434;42.794;23.302;2023-04-26T00:33:06;94542.59;;;6.81;nan
70072;BME280;57434;42.794;23.302;2023-04-26T00:34:08;94570.03;;;6.88;nan
70072;BME280;57434;42.794;23.302;2023-04-26T00:35:10;94716.81;;;7.74;nan
70072;BME280;57434;42.794;23.302;2023-04-26T00:36:12;94572.38;;;7.01;nan
70072;BME280;57434;42.794;23.302;2023-04-26T00:37:14;94568.94;;;7.11;nan
70072;BME280;57434;42.794;23.302;2023-04-26T00:38:16;94614.88;;;7.47;nan
70072;BME280;57434;42.794;23.302;2023-04-26T00:39:17;94676.19;;;7.73;nan
70072;BME280;57434;42.794;23.302;2023-04-26T00:40:19;94698.75;;;7.70;nan
70072;BME280;57434;42.794;23.302;2023-04-26T00:41:21;94597.00;;;7.34;nan
70072;BME280;57434;42.794;23.302;2023-04-26T00:42:23;94681.28;;;7.80;nan
70072;BME280;57434;42.794;23.302;2023-04-26T00:43:25;94731.41;;;7.95;nan
70072;BME280;57434;42.794;23.302;2023-04-26T00:44:27;94529.13;;;6.79;nan
70072;BME280;57434;42.794;23.302;2023-04-26T00:45:29;94610.84;;;7.23;nan
70072;BME280;57434;42.794;23.302;2023-04-26T00:46:31;94580.03;;;7.06;nan
70072;BME280;57434;42.794;23.302;2023-04-26T00:47:33;94695.78;;;7.85;nan
70072;BME280;57434;42.794;23.302;2023-04-26T00:48:36;94600.00;;;7.30;nan
70072;BME280;57434;42.794;23.302;2023-04-26T00:49:39;94558.00;;;7.08;nan
70072;BME280;57434;42.794;23.302;2023-04-26T00:50:41;94560.34;;;7.15;nan
70072;BME280;57434;42.794;23.302;2023-04-26T00:51:43;94555.97;;;7.08;nan
70072;BME280;57434;42.794;23.302;2023-04-26T00:52:46;94675.78;;;7.92;nan
70072;BME280;57434;42.794;23.302;2023-04-26T00:53:47;94700.97;;;7.97;nan
70072;BME280;57434;42.794;23.302;2023-04-26T00:54:50;94684.66;;;7.90;nan
70072;BME280;57434;42.794;23.302;2023-04-26T00:55:52;94683.75;;;8.10;nan
70072;BME280;57434;42.794;23.302;2023-04-26T00:56:54;94650.56;;;7.75;nan
70072;BME280;57434;42.794;23.302;2023-04-26T00:57:56;94572.09;;;7.30;nan
70072;BME280;57434;42.794;23.302;2023-04-26T00:58:58;94696.38;;;7.94;nan
70072;BME280;57434;42.794;23.302;2023-04-26T01:00:00;94574.56;;;7.23;nan
70072;BME280;57434;42.794;23.302;2023-04-26T01:01:01;94655.88;;;7.73;nan
70072;BME280;57434;42.794;23.302;2023-04-26T01:02:03;94712.13;;;7.97;nan
70072;BME280;57434;42.794;23.302;2023-04-26T01:03:06;94574.47;;;7.06;nan
70072;BME280;57434;42.794;23.302;2023-04-26T01:04:07;94607.78;;;7.21;nan
70072;BME280;57434;42.794;23.302;2023-04-26T01:05:10;94687.88;;;7.77;nan
70072;BME280;57434;42.794;23.302;2023-04-26T01:06:12;94527.22;;;6.60;nan
70072;BME280;57434;42.794;23.302;2023-04-26T01:07:14;94705.13;;;7.76;nan
70072;BME280;57434;42.794;23.302;2023-04-26T01:08:15;94710.97;;;7.72;nan
70072;BME280;57434;42.794;23.302;2023-04-26T01:09:17;94604.50;;;7.22;nan
70072;BME280;57434;42.794;23.302;2023-04-26T01:10:19;94588.19;;;7.09;nan
70072;BME280;57434;42.794;23.302;2023-04-26T01:11:21;94548.81;;;6.70;nan
70072;BME280;57434;42.794;23.302;2023-04-26T01:12:23;94702.16;;;7.54;nan
70072;BME280;57434;42.794;23.302;2023-04-26T01:13:27;94666.69;;;7.28;nan
70072;BME280;57434;42.794;23.302;2023-04-26T01:14:30;94639.09;;;6.78;nan
70072;BME280;57434;42.794;23.302;2023-04-26T01:15:34;94689.41;;;6.90;nan
70072;BME280;57434;42.794;23.302;2023-04-26T01:18:27;94660.56;;;6.93;nan
70072;BME280;57434;42.794;23.302;2023-04-26T01:19:29;94700.66;;;7.27;nan
70072;BME280;57434;42.794;23.302;2023-04-26T01:20:31;94715.34;;;7.27;nan
70072;BME280;57434;42.794;23.302;2023-04-26T01:21:33;94665.66;;;7.00;nan
70072;BME280;57434;42.794;23.302;2023-04-26T01:22:35;94674.78;;;7.00;nan
70072;BME280;57434;42.794;23.302;2023-04-26T01:23:37;94506.84;;;5.96;nan
70072;BME280;57434;42.794;23.302;2023-04-26T01:24:44;94647.47;;;6.78;nan
70072;BME280;57434;42.794;23.302;2023-04-26T01:25:47;94582.00;;;6.42;nan
70072;BME280;57434;42.794;23.302;2023-04-26T01:26:49;94634.94;;;6.68;nan
70072;BME280;57434;42.794;23.302;2023-04-26T01:27:51;94666.50;;;7.06;nan
70072;BME280;57434;42.794;23.302;2023-04-26T01:28:53;94599.06;;;6.50;nan
70072;BME280;57434;42.794;23.302;2023-04-26T01:29:55;94682.25;;;7.09;nan
70072;BME280;57434;42.794;23.302;2023-04-26T01:30:57;94636.75;;;6.71;nan
70072;BME280;57434;42.794;23.302;2023-04-26T01:31:58;94570.56;;;6.40;nan
70072;BME280;57434;42.794;23.302;2023-04-26T01:33:00;94603.16;;;6.55;nan
70072;BME280;57434;42.794;23.302;2023-04-26T01:34:02;94555.66;;;6.18;nan
70072;BME280;57434;42.794;23.302;2023-04-26T01:35:05;94655.13;;;6.84;nan
70072;BME280;57434;42.794;23.302;2023-04-26T01:36:08;94575.75;;;6.01;nan
70072;BME280;57434;42.794;23.302;2023-04-26T01:37:10;94719.94;;;6.78;nan
70072;BME280;57434;42.794;23.302;2023-04-26T01:38:12;94688.44;;;6.93;nan
70072;BME280;57434;42.794;23.302;2023-04-26T01:39:14;94666.09;;;6.67;nan
70072;BME280;57434;42.794;23.302;2023-04-26T01:40:16;94616.38;;;6.34;nan
70072;BME280;57434;42.794;23.302;2023-04-26T01:41:18;94662.00;;;6.62;nan
70072;BME280;57434;42.794;23.302;2023-04-26T01:42:20;94741.63;;;7.15;nan
70072;BME280;57434;42.794;23.302;2023-04-26T01:43:22;94606.75;;;6.35;nan
70072;BME280;57434;42.794;23.302;2023-04-26T01:44:24;94727.47;;;7.19;nan
70072;BME280;57434;42.794;23.302;2023-04-26T01:45:25;94713.97;;;7.11;nan
70072;BME280;57434;42.794;23.302;2023-04-26T01:46:27;94714.94;;;7.08;nan
70072;BME280;57434;42.794;23.302;2023-04-26T01:47:29;94683.97;;;6.80;nan
70072;BME280;57434;42.794;23.302;2023-04-26T01:48:31;94700.00;;;6.86;nan
70072;BME280;57434;42.794;23.302;2023-04-26T01:49:33;94605.00;;;6.37;nan
70072;BME280;57434;42.794;23.302;2023-04-26T01:50:35;94685.25;;;6.79;nan
70072;BME280;57434;42.794;23.302;2023-04-26T01:51:37;94562.75;;;6.19;nan
70072;BME280;57434;42.794;23.302;2023-04-26T01:52:39;94598.69;;;6.37;nan
70072;BME280;57434;42.794;23.302;2023-04-26T01:53:41;94714.72;;;7.12;nan
70072;BME280;57434;42.794;23.302;2023-04-26T01:54:43;94733.72;;;7.34;nan
70072;BME280;57434;42.794;23.302;2023-04-26T01:55:45;94730.63;;;7.32;nan
70072;BME280;57434;42.794;23.302;2023-04-26T01:56:47;94685.25;;;7.05;nan
70072;BME280;57434;42.794;23.302;2023-04-26T01:57:49;94615.41;;;6.63;nan
70072;BME280;57434;42.794;23.302;2023-04-26T01:58:50;94708.03;;;7.04;nan
70072;BME280;57434;42.794;23.302;2023-04-26T01:59:53;94764.03;;;7.26;nan
70072;BME280;57434;42.794;23.302;2023-04-26T02:00:55;94584.25;;;6.38;nan
70072;BME280;57434;42.794;23.302;2023-04-26T02:01:57;94692.41;;;7.12;nan
70072;BME280;57434;42.794;23.302;2023-04-26T02:02:59;94690.47;;;7.24;nan
70072;BME280;57434;42.794;23.302;2023-04-26T02:04:01;94573.38;;;6.40;nan
70072;BME280;57434;42.794;23.302;2023-04-26T02:05:03;94720.25;;;7.32;nan
70072;BME280;57434;42.794;23.302;2023-04-26T02:06:06;94727.38;;;7.33;nan
70072;BME280;57434;42.794;23.302;2023-04-26T02:07:08;94585.94;;;6.56;nan
70072;BME280;57434;42.794;23.302;2023-04-26T02:08:09;94597.69;;;6.66;nan
70072;BME280;57434;42.794;23.302;2023-04-26T02:09:11;94700.84;;;7.49;nan
70072;BME280;57434;42.794;23.302;2023-04-26T02:10:13;94718.63;;;7.46;nan
70072;BME280;57434;42.794;23.302;2023-04-26T02:11:15;94492.31;;;6.12;nan
70072;BME280;57434;42.794;23.302;2023-04-26T02:12:17;94574.94;;;6.73;nan
70072;BME280;57434;42.794;23.302;2023-04-26T02:13:19;94692.97;;;7.42;nan
70072;BME280;57434;42.794;23.302;2023-04-26T02:14:21;94693.56;;;7.57;nan
70072;BME280;57434;42.794;23.302;2023-04-26T02:15:23;94668.59;;;7.42;nan
70072;BME280;57434;42.794;23.302;2023-04-26T02:16:24;94636.47;;;7.27;nan
70072;BME280;57434;42.794;23.302;2023-04-26T02:17:27;94644.31;;;7.23;nan
70072;BME280;57434;42.794;23.302;2023-04-26T02:18:28;94693.03;;;7.53;nan
70072;BME280;57434;42.794;23.302;2023-04-26T02:19:30;94545.75;;;6.68;nan
70072;BME280;57434;42.794;23.302;2023-04-26T02:20:32;94596.78;;;7.06;nan
70072;BME280;57434;42.794;23.302;2023-04-26T02:21:52;94669.88;;;7.41;nan
70072;BME280;57434;42.794;23.302;2023-04-26T02:22:56;94684.00;;;7.32;nan
70072;BME280;57434;42.794;23.302;2023-04-26T02:23:57;94665.84;;;7.17;nan
70072;BME280;57434;42.794;23.302;2023-04-26T02:24:59;94674.63;;;7.35;nan
70072;BME280;57434;42.794;23.302;2023-04-26T02:26:01;94655.19;;;7.21;nan
70072;BME280;57434;42.794;23.302;2023-04-26T02:27:03;94668.41;;;7.20;nan
70072;BME280;57434;42.794;23.302;2023-04-26T02:28:05;94635.91;;;7.17;nan
70072;BME280;57434;42.794;23.302;2023-04-26T02:29:07;94551.13;;;6.46;nan
70072;BME280;57434;42.794;23.302;2023-04-26T02:30:09;94666.19;;;7.30;nan
70072;BME280;57434;42.794;23.302;2023-04-26T02:31:11;94662.81;;;7.20;nan
70072;BME280;57434;42.794;23.302;2023-04-26T02:32:14;94561.31;;;6.49;nan
70072;BME280;57434;42.794;23.302;2023-04-26T02:33:16;94490.28;;;6.07;nan
70072;BME280;57434;42.794;23.302;2023-04-26T02:34:17;94650.31;;;7.10;nan
70072;BME280;57434;42.794;23.302;2023-04-26T02:35:19;94633.47;;;6.73;nan
70072;BME280;57434;42.794;23.302;2023-04-26T02:36:21;94694.94;;;6.84;nan
70072;BME280;57434;42.794;23.302;2023-04-26T02:37:23;94680.53;;;6.65;nan
70072;BME280;57434;42.794;23.302;2023-04-26T02:38:25;94674.97;;;6.65;nan
70072;BME280;57434;42.794;23.302;2023-04-26T02:39:27;94578.50;;;6.22;nan
70072;BME280;57434;42.794;23.302;2023-04-26T02:40:29;94683.53;;;6.62;nan
70072;BME280;57434;42.794;23.302;2023-04-26T02:41:31;94693.47;;;6.68;nan
70072;BME280;57434;42.794;23.302;2023-04-26T02:42:33;94539.03;;;5.77;nan
70072;BME280;57434;42.794;23.302;2023-04-26T02:43:35;94548.81;;;5.93;nan
70072;BME280;57434;42.794;23.302;2023-04-26T02:44:37;94664.03;;;6.62;nan
70072;BME280;57434;42.794;23.302;2023-04-26T02:45:42;94595.75;;;6.26;nan
70072;BME280;57434;42.794;23.302;2023-04-26T02:46:44;94675.63;;;6.80;nan
70072;BME280;57434;42.794;23.302;2023-04-26T02:47:46;94623.75;;;6.37;nan
70072;BME280;57434;42.794;23.302;2023-04-26T02:48:48;94664.97;;;6.79;nan
70072;BME280;57434;42.794;23.302;2023-04-26T02:49:50;94701.84;;;6.94;nan
70072;BME280;57434;42.794;23.302;2023-04-26T02:50:52;94664.19;;;6.78;nan
70072;BME280;57434;42.794;23.302;2023-04-26T02:51:54;94705.47;;;7.00;nan
70072;BME280;57434;42.794;23.302;2023-04-26T02:52:55;94462.31;;;5.50;nan
70072;BME280;57434;42.794;23.302;2023-04-26T02:53:58;94629.91;;;6.72;nan
70072;BME280;57434;42.794;23.302;2023-04-26T02:55:01;94677.59;;;7.00;nan
70072;BME280;57434;42.794;23.302;2023-04-26T02:56:03;94675.78;;;6.97;nan
70072;BME280;57434;42.794;23.302;2023-04-26T02:57:05;94645.50;;;6.85;nan
70072;BME280;57434;42.794;23.302;2023-04-26T02:58:07;94655.91;;;6.84;nan
70072;BME280;57434;42.794;23.302;2023-04-26T02:59:09;94669.13;;;6.89;nan
70072;BME280;57434;42.794;23.302;2023-04-26T03:00:11;94541.84;;;6.03;nan
70072;BME280;57434;42.794;23.302;2023-04-26T03:01:13;94703.66;;;6.97;nan
70072;BME280;57434;42.794;23.302;2023-04-26T03:02:15;94563.47;;;6.13;nan
70072;BME280;57434;42.794;23.302;2023-04-26T03:03:17;94688.09;;;6.85;nan
70072;BME280;57434;42.794;23.302;2023-04-26T03:04:19;94680.91;;;6.78;nan
70072;BME280;57434;42.794;23.302;2023-04-26T03:05:21;94559.81;;;6.02;nan
70072;BME280;57434;42.794;23.302;2023-04-26T03:06:23;94679.66;;;6.79;nan
70072;BME280;57434;42.794;23.302;2023-04-26T03:07:25;94566.78;;;5.71;nan
70072;BME280;57434;42.794;23.302;2023-04-26T03:08:27;94673.53;;;6.75;nan
70072;BME280;57434;42.794;23.302;2023-04-26T03:09:29;94673.88;;;6.83;nan
70072;BME280;57434;42.794;23.302;2023-04-26T03:10:31;94689.50;;;6.75;nan
70072;BME280;57434;42.794;23.302;2023-04-26T03:11:33;94613.97;;;6.47;nan
70072;BME280;57434;42.794;23.302;2023-04-26T03:12:34;94557.25;;;5.78;nan
70072;BME280;57434;42.794;23.302;2023-04-26T03:13:36;94643.72;;;6.35;nan
70072;BME280;57434;42.794;23.302;2023-04-26T03:14:38;94636.59;;;6.55;nan
70072;BME280;57434;42.794;23.302;2023-04-26T03:15:46;94514.66;;;5.72;nan
70072;BME280;57434;42.794;23.302;2023-04-26T03:16:48;94543.63;;;5.80;nan
70072;BME280;57434;42.794;23.302;2023-04-26T03:17:50;94668.94;;;6.72;nan
70072;BME280;57434;42.794;23.302;2023-04-26T03:18:51;94547.28;;;5.92;nan
70072;BME280;57434;42.794;23.302;2023-04-26T03:19:54;94518.28;;;5.78;nan
70072;BME280;57434;42.794;23.302;2023-04-26T03:20:56;94514.59;;;5.66;nan
70072;BME280;57434;42.794;23.302;2023-04-26T03:21:58;94616.56;;;6.30;nan
70072;BME280;57434;42.794;23.302;2023-04-26T03:23:00;94520.47;;;5.48;nan
70072;BME280;57434;42.794;23.302;2023-04-26T03:24:01;94569.16;;;5.78;nan
70072;BME280;57434;42.794;23.302;2023-04-26T03:25:04;94664.09;;;6.47;nan
70072;BME280;57434;42.794;23.302;2023-04-26T03:26:06;94528.09;;;5.33;nan
70072;BME280;57434;42.794;23.302;2023-04-26T03:27:07;94651.75;;;6.28;nan
70072;BME280;57434;42.794;23.302;2023-04-26T03:28:09;94497.97;;;5.31;nan
70072;BME280;57434;42.794;23.302;2023-04-26T03:29:11;94639.00;;;6.21;nan
70072;BME280;57434;42.794;23.302;2023-04-26T03:30:14;94606.00;;;6.14;nan
70072;BME280;57434;42.794;23.302;2023-04-26T03:31:15;94660.94;;;6.34;nan
70072;BME280;57434;42.794;23.302;2023-04-26T03:32:17;94647.50;;;6.32;nan
70072;BME280;57434;42.794;23.302;2023-04-26T03:33:20;94633.13;;;6.39;nan
70072;BME280;57434;42.794;23.302;2023-04-26T03:34:21;94540.28;;;5.76;nan
70072;BME280;57434;42.794;23.302;2023-04-26T03:35:23;94656.41;;;6.36;nan
70072;BME280;57434;42.794;23.302;2023-04-26T03:36:25;94664.19;;;6.53;nan
70072;BME280;57434;42.794;23.302;2023-04-26T03:37:27;94662.03;;;6.42;nan
70072;BME280;57434;42.794;23.302;2023-04-26T03:38:29;94647.31;;;6.41;nan
70072;BME280;57434;42.794;23.302;2023-04-26T03:39:31;94618.88;;;6.32;nan
70072;BME280;57434;42.794;23.302;2023-04-26T03:40:33;94656.75;;;6.24;nan
70072;BME280;57434;42.794;23.302;2023-04-26T03:41:35;94509.53;;;5.44;nan
70072;BME280;57434;42.794;23.302;2023-04-26T03:42:36;94613.25;;;6.06;nan
70072;BME280;57434;42.794;23.302;2023-04-26T03:43:38;94639.47;;;6.20;nan
70072;BME280;57434;42.794;23.302;2023-04-26T03:44:40;94685.97;;;6.54;nan
70072;BME280;57434;42.794;23.302;2023-04-26T03:45:45;94576.09;;;5.89;nan
70072;BME280;57434;42.794;23.302;2023-04-26T03:46:47;94630.22;;;6.28;nan
70072;BME280;57434;42.794;23.302;2023-04-26T03:47:49;94487.22;;;5.39;nan
70072;BME280;57434;42.794;23.302;2023-04-26T03:48:51;94675.50;;;6.69;nan
70072;BME280;57434;42.794;23.302;2023-04-26T03:49:53;94697.09;;;6.74;nan
70072;BME280;57434;42.794;23.302;2023-04-26T03:50:55;94508.06;;;5.69;nan
70072;BME280;57434;42.794;23.302;2023-04-26T03:51:57;94675.41;;;6.58;nan
70072;BME280;57434;42.794;23.302;2023-04-26T03:52:59;94561.41;;;6.08;nan
70072;BME280;57434;42.794;23.302;2023-04-26T03:54:00;94596.53;;;6.26;nan
70072;BME280;57434;42.794;23.302;2023-04-26T03:55:03;94674.25;;;6.70;nan
70072;BME280;57434;42.794;23.302;2023-04-26T03:56:05;94630.56;;;6.36;nan
70072;BME280;57434;42.794;23.302;2023-04-26T03:57:06;94677.75;;;6.65;nan
70072;BME280;57434;42.794;23.302;2023-04-26T03:58:08;94601.00;;;5.98;nan
70072;BME280;57434;42.794;23.302;2023-04-26T03:59:10;94661.75;;;6.20;nan
70072;BME280;57434;42.794;23.302;2023-04-26T04:00:13;94708.47;;;6.51;nan
70072;BME280;57434;42.794;23.302;2023-04-26T04:01:15;94675.91;;;6.36;nan
70072;BME280;57434;42.794;23.302;2023-04-26T04:02:17;94675.97;;;6.22;nan
70072;BME280;57434;42.794;23.302;2023-04-26T04:03:18;94702.56;;;6.23;nan
70072;BME280;57434;42.794;23.302;2023-04-26T04:04:20;94669.47;;;5.90;nan
70072;BME280;57434;42.794;23.302;2023-04-26T04:05:23;94671.16;;;6.02;nan
70072;BME280;57434;42.794;23.302;2023-04-26T04:06:25;94716.94;;;6.36;nan
70072;BME280;57434;42.794;23.302;2023-04-26T04:07:27;94577.22;;;5.56;nan
70072;BME280;57434;42.794;23.302;2023-04-26T04:08:29;94726.34;;;6.38;nan
70072;BME280;57434;42.794;23.302;2023-04-26T04:09:31;94705.78;;;6.36;nan
70072;BME280;57434;42.794;23.302;2023-04-26T04:10:33;94651.81;;;6.13;nan
70072;BME280;57434;42.794;23.302;2023-04-26T04:11:35;94701.16;;;6.53;nan
70072;BME280;57434;42.794;23.302;2023-04-26T04:12:37;94602.06;;;5.80;nan
70072;BME280;57434;42.794;23.302;2023-04-26T04:13:39;94715.72;;;6.63;nan
70072;BME280;57434;42.794;23.302;2023-04-26T04:14:40;94696.31;;;6.28;nan
70072;BME280;57434;42.794;23.302;2023-04-26T04:15:42;94577.59;;;5.29;nan
70072;BME280;57434;42.794;23.302;2023-04-26T04:16:44;94573.22;;;5.42;nan
70072;BME280;57434;42.794;23.302;2023-04-26T04:17:46;94590.69;;;5.63;nan
70072;BME280;57434;42.794;23.302;2023-04-26T04:18:48;94678.63;;;6.31;nan
70072;BME280;57434;42.794;23.302;2023-04-26T04:19:50;94743.38;;;6.66;nan
70072;BME280;57434;42.794;23.302;2023-04-26T04:20:52;94660.78;;;6.23;nan
70072;BME280;57434;42.794;23.302;2023-04-26T04:21:54;94597.47;;;5.77;nan
70072;BME280;57434;42.794;23.302;2023-04-26T04:22:56;94663.66;;;6.28;nan
70072;BME280;57434;42.794;23.302;2023-04-26T04:23:58;94622.66;;;6.08;nan
70072;BME280;57434;42.794;23.302;2023-04-26T04:24:59;94613.19;;;5.80;nan
70072;BME280;57434;42.794;23.302;2023-04-26T04:26:01;94618.47;;;5.98;nan
70072;BME280;57434;42.794;23.302;2023-04-26T04:27:03;94713.44;;;6.61;nan
70072;BME280;57434;42.794;23.302;2023-04-26T04:28:05;94740.31;;;6.64;nan
70072;BME280;57434;42.794;23.302;2023-04-26T04:29:07;94583.25;;;5.95;nan
70072;BME280;57434;42.794;23.302;2023-04-26T04:30:09;94569.81;;;5.94;nan
70072;BME280;57434;42.794;23.302;2023-04-26T04:31:12;94564.75;;;5.92;nan
70072;BME280;57434;42.794;23.302;2023-04-26T04:32:14;94667.13;;;6.69;nan
70072;BME280;57434;42.794;23.302;2023-04-26T04:33:16;94556.53;;;6.03;nan
70072;BME280;57434;42.794;23.302;2023-04-26T04:34:17;94566.81;;;6.18;nan
70072;BME280;57434;42.794;23.302;2023-04-26T04:35:21;94647.47;;;6.78;nan
70072;BME280;57434;42.794;23.302;2023-04-26T04:36:23;94619.09;;;6.54;nan
70072;BME280;57434;42.794;23.302;2023-04-26T04:37:25;94685.47;;;7.02;nan
70072;BME280;57434;42.794;23.302;2023-04-26T04:38:27;94618.84;;;6.52;nan
70072;BME280;57434;42.794;23.302;2023-04-26T04:39:29;94750.78;;;7.21;nan
70072;BME280;57434;42.794;23.302;2023-04-26T04:40:31;94602.38;;;6.54;nan
70072;BME280;57434;42.794;23.302;2023-04-26T04:41:33;94635.63;;;6.84;nan
70072;BME280;57434;42.794;23.302;2023-04-26T04:42:35;94675.47;;;7.21;nan
70072;BME280;57434;42.794;23.302;2023-04-26T04:43:37;94712.94;;;7.35;nan
70072;BME280;57434;42.794;23.302;2023-04-26T04:44:38;94630.19;;;7.00;nan
70072;BME280;57434;42.794;23.302;2023-04-26T04:45:40;94710.59;;;7.59;nan
70072;BME280;57434;42.794;23.302;2023-04-26T04:46:43;94643.75;;;7.13;nan
70072;BME280;57434;42.794;23.302;2023-04-26T04:47:45;94709.19;;;7.75;nan
70072;BME280;57434;42.794;23.302;2023-04-26T04:48:47;94586.09;;;6.73;nan
70072;BME280;57434;42.794;23.302;2023-04-26T04:49:49;94597.72;;;6.71;nan
70072;BME280;57434;42.794;23.302;2023-04-26T04:50:50;94565.59;;;6.76;nan
70072;BME280;57434;42.794;23.302;2023-04-26T04:51:52;94727.06;;;7.89;nan
70072;BME280;57434;42.794;23.302;2023-04-26T04:52:54;94675.25;;;7.19;nan
70072;BME280;57434;42.794;23.302;2023-04-26T04:53:56;94562.44;;;6.94;nan
70072;BME280;57434;42.794;23.302;2023-04-26T04:54:59;94702.97;;;7.91;nan
70072;BME280;57434;42.794;23.302;2023-04-26T04:56:00;94746.78;;;8.16;nan
70072;BME280;57434;42.794;23.302;2023-04-26T04:57:02;94707.88;;;8.07;nan
70072;BME280;57434;42.794;23.302;2023-04-26T04:58:04;94599.41;;;7.21;nan
70072;BME280;57434;42.794;23.302;2023-04-26T04:59:06;94631.84;;;7.49;nan
70072;BME280;57434;42.794;23.302;2023-04-26T05:00:09;94672.66;;;7.78;nan
70072;BME280;57434;42.794;23.302;2023-04-26T05:01:11;94731.38;;;8.27;nan
70072;BME280;57434;42.794;23.302;2023-04-26T05:02:13;94617.66;;;7.53;nan
70072;BME280;57434;42.794;23.302;2023-04-26T05:03:15;94709.47;;;8.20;nan
70072;BME280;57434;42.794;23.302;2023-04-26T05:04:16;94718.94;;;8.28;nan
70072;BME280;57434;42.794;23.302;2023-04-26T05:05:19;94584.91;;;7.42;nan
70072;BME280;57434;42.794;23.302;2023-04-26T05:06:20;94719.88;;;8.19;nan
70072;BME280;57434;42.794;23.302;2023-04-26T05:07:22;94741.81;;;8.37;nan
70072;BME280;57434;42.794;23.302;2023-04-26T05:08:25;94742.72;;;8.18;nan
70072;BME280;57434;42.794;23.302;2023-04-26T05:09:27;94586.94;;;7.42;nan
70072;BME280;57434;42.794;23.302;2023-04-26T05:10:28;94730.38;;;8.30;nan
70072;BME280;57434;42.794;23.302;2023-04-26T05:11:31;94671.78;;;7.98;nan
70072;BME280;57434;42.794;23.302;2023-04-26T05:12:33;94624.63;;;7.69;nan
70072;BME280;57434;42.794;23.302;2023-04-26T05:13:34;94667.53;;;8.14;nan
70072;BME280;57434;42.794;23.302;2023-04-26T05:14:36;94694.81;;;8.36;nan
70072;BME280;57434;42.794;23.302;2023-04-26T05:15:38;94672.91;;;8.23;nan
70072;BME280;57434;42.794;23.302;2023-04-26T05:16:40;94707.84;;;8.50;nan
70072;BME280;57434;42.794;23.302;2023-04-26T05:17:42;94717.19;;;8.41;nan
70072;BME280;57434;42.794;23.302;2023-04-26T05:18:44;94610.75;;;7.86;nan
70072;BME280;57434;42.794;23.302;2023-04-26T05:19:46;94616.13;;;7.89;nan
70072;BME280;57434;42.794;23.302;2023-04-26T05:20:47;94706.84;;;8.53;nan
70072;BME280;57434;42.794;23.302;2023-04-26T05:21:51;94652.81;;;8.19;nan
70072;BME280;57434;42.794;23.302;2023-04-26T05:22:52;94740.44;;;8.64;nan
70072;BME280;57434;42.794;23.302;2023-04-26T05:23:54;94702.53;;;8.52;nan
70072;BME280;57434;42.794;23.302;2023-04-26T05:24:56;94593.97;;;7.74;nan
70072;BME280;57434;42.794;23.302;2023-04-26T05:26:03;94732.78;;;8.59;nan
70072;BME280;57434;42.794;23.302;2023-04-26T05:27:05;94597.06;;;7.88;nan
70072;BME280;57434;42.794;23.302;2023-04-26T05:28:07;94734.13;;;8.75;nan
70072;BME280;57434;42.794;23.302;2023-04-26T05:29:08;94741.22;;;8.70;nan
70072;BME280;57434;42.794;23.302;2023-04-26T05:30:11;94719.28;;;8.58;nan
70072;BME280;57434;42.794;23.302;2023-04-26T05:31:12;94734.34;;;8.66;nan
70072;BME280;57434;42.794;23.302;2023-04-26T05:32:14;94620.75;;;8.03;nan
70072;BME280;57434;42.794;23.302;2023-04-26T05:33:16;94722.19;;;8.74;nan
70072;BME280;57434;42.794;23.302;2023-04-26T05:34:18;94698.16;;;8.45;nan
70072;BME280;57434;42.794;23.302;2023-04-26T05:35:20;94702.50;;;8.46;nan
70072;BME280;57434;42.794;23.302;2023-04-26T05:36:22;94608.44;;;7.78;nan
70072;BME280;57434;42.794;23.302;2023-04-26T05:37:23;94653.25;;;8.06;nan
70072;BME280;57434;42.794;23.302;2023-04-26T05:38:26;94717.03;;;8.56;nan
70072;BME280;57434;42.794;23.302;2023-04-26T05:39:28;94599.41;;;7.95;nan